createdAt,value
2024-05-09T00:01:36.618Z,13.43
2024-05-09T00:04:07.398Z,15.43
2024-05-09T00:06:39.898Z,15.60
2024-05-09T00:09:09.837Z,14.93
2024-05-09T00:11:39.846Z,14.10
2024-05-09T00:14:09.810Z,14.40
2024-05-09T00:16:39.704Z,20.63
2024-05-09T00:19:09.769Z,15.50
2024-05-09T00:21:44.235Z,17.83
2024-05-09T00:24:13.993Z,14.20
2024-05-09T00:26:44.273Z,16.37
2024-05-09T00:29:14.226Z,15.73
2024-05-09T00:31:44.444Z,15.63
2024-05-09T00:34:14.356Z,18.53
2024-05-09T00:36:46.940Z,14.90
2024-05-09T00:39:17.253Z,13.90
2024-05-09T00:41:47.130Z,14.73
2024-05-09T00:44:17.242Z,13.73
2024-05-09T00:46:47.214Z,13.90
2024-05-09T00:49:17.282Z,12.70
2024-05-09T00:51:50.488Z,14.17
2024-05-09T00:54:21.272Z,13.23
2024-05-09T00:56:52.350Z,12.57
2024-05-09T00:59:22.929Z,13.77
2024-05-09T01:01:52.893Z,12.97
2024-05-09T01:04:23.620Z,13.17
2024-05-09T01:06:56.033Z,15.10
2024-05-09T01:09:25.885Z,15.20
2024-05-09T01:11:55.837Z,15.93
2024-05-09T01:14:25.761Z,16.47
2024-05-09T01:16:56.374Z,16.47
2024-05-09T01:19:29.348Z,17.37
2024-05-09T01:22:04.167Z,17.80
2024-05-09T01:24:36.759Z,16.47
2024-05-09T01:27:06.979Z,17.50
2024-05-09T01:29:36.820Z,16.97
2024-05-09T01:32:07.221Z,16.07
2024-05-09T01:34:37.387Z,17.43
2024-05-09T01:37:07.445Z,15.40
2024-05-09T01:39:39.860Z,20.43
2024-05-09T01:42:09.637Z,16.27
2024-05-09T01:44:39.412Z,18.03
2024-05-09T01:47:09.511Z,18.70
2024-05-09T01:49:40.218Z,15.07
2024-05-09T01:52:10.020Z,16.97
2024-05-09T01:54:42.352Z,16.27
2024-05-09T01:57:12.158Z,15.00
2024-05-09T01:59:42.060Z,19.70
2024-05-09T02:02:12.032Z,15.93
2024-05-09T02:04:42.168Z,15.80
2024-05-09T02:07:12.078Z,16.17
2024-05-09T02:09:44.495Z,14.00
2024-05-09T02:12:14.851Z,16.47
2024-05-09T02:14:44.812Z,15.23
2024-05-09T02:17:14.789Z,16.23
2024-05-09T02:19:45.018Z,16.10
2024-05-09T02:22:14.912Z,16.23
2024-05-09T02:24:47.354Z,17.40
2024-05-09T02:27:17.174Z,16.03
2024-05-09T02:29:48.186Z,17.00
2024-05-09T02:32:18.261Z,15.13
2024-05-09T02:34:48.584Z,15.47
2024-05-09T02:37:19.566Z,16.43
2024-05-09T02:39:49.350Z,16.90
2024-05-09T02:42:19.385Z,17.27
2024-05-09T02:44:46.550Z,16.03
2024-05-09T02:47:17.098Z,17.20
2024-05-09T02:49:44.354Z,17.97
2024-05-09T02:52:14.136Z,16.33
2024-05-09T02:54:41.667Z,18.20
2024-05-09T02:57:14.119Z,16.83
2024-05-09T02:59:41.369Z,16.03
2024-05-09T03:02:11.288Z,16.90
2024-05-09T03:04:39.103Z,16.30
2024-05-09T03:07:08.959Z,15.53
2024-05-09T03:09:36.240Z,18.47
2024-05-09T03:12:07.472Z,15.90
2024-05-09T03:14:37.358Z,15.80
2024-05-09T03:17:07.677Z,16.93
2024-05-09T03:19:35.610Z,15.40
2024-05-09T03:22:05.670Z,14.97
2024-05-09T03:24:33.054Z,18.03
2024-05-09T03:27:02.827Z,14.27
2024-05-09T03:29:30.215Z,15.73
2024-05-09T03:32:03.353Z,16.53
2024-05-09T03:34:30.850Z,16.90
2024-05-09T03:37:00.711Z,17.07
2024-05-09T03:39:30.766Z,18.70
2024-05-09T03:42:00.863Z,17.77
2024-05-09T03:44:30.784Z,19.33
2024-05-09T03:47:00.708Z,19.50
2024-05-09T03:49:30.667Z,17.53
2024-05-09T03:51:57.991Z,18.90
2024-05-09T03:54:28.612Z,16.23
2024-05-09T03:56:56.074Z,18.57
2024-05-09T03:59:25.943Z,17.90
2024-05-09T04:01:53.278Z,17.53
2024-05-09T04:04:25.754Z,18.50
2024-05-09T04:06:52.988Z,18.03
2024-05-09T04:09:23.069Z,16.60
2024-05-09T04:11:50.370Z,17.20
2024-05-09T04:14:20.293Z,17.03
2024-05-09T04:16:48.058Z,16.47
2024-05-09T04:19:18.109Z,15.87
2024-05-09T04:21:48.388Z,17.23
2024-05-09T04:24:18.131Z,17.20
2024-05-09T04:26:45.743Z,16.70
2024-05-09T04:29:16.630Z,16.23
2024-05-09T04:31:44.160Z,15.60
2024-05-09T04:34:14.409Z,18.77
2024-05-09T04:36:44.334Z,17.30
2024-05-09T04:39:17.089Z,18.00
2024-05-09T04:41:44.297Z,17.50
2024-05-09T04:44:14.155Z,16.33
2024-05-09T04:46:41.406Z,18.93
2024-05-09T04:49:11.362Z,18.40
2024-05-09T04:51:39.111Z,18.10
2024-05-09T04:54:15.651Z,17.03
2024-05-09T04:56:53.213Z,19.67
2024-05-09T04:59:23.024Z,21.53
2024-05-09T05:01:50.412Z,21.20
2024-05-09T05:04:20.531Z,19.80
2024-05-09T05:06:47.812Z,19.57
2024-05-09T05:09:17.719Z,18.80
2024-05-09T05:11:45.048Z,19.40
2024-05-09T05:14:17.497Z,19.47
2024-05-09T05:16:44.793Z,20.00
2024-05-09T05:19:17.721Z,18.80
2024-05-09T05:21:45.013Z,20.90
2024-05-09T05:24:14.754Z,20.13
2024-05-09T05:26:42.039Z,20.43
2024-05-09T05:29:12.873Z,20.50
2024-05-09T05:31:42.754Z,21.17
2024-05-09T05:34:12.814Z,21.23
2024-05-09T05:36:40.094Z,21.03
2024-05-09T05:39:10.155Z,20.20
2024-05-09T05:41:37.344Z,21.10
2024-05-09T05:44:07.695Z,22.70
2024-05-09T05:46:34.855Z,19.87
2024-05-09T05:49:07.429Z,20.63
2024-05-09T05:51:34.645Z,20.30
2024-05-09T05:54:04.564Z,22.23
2024-05-09T05:56:32.038Z,20.33
2024-05-09T05:59:01.977Z,20.80
2024-05-09T06:01:29.507Z,20.37
2024-05-09T06:03:59.857Z,18.00
2024-05-09T06:06:29.965Z,18.07
2024-05-09T06:08:59.974Z,19.70
2024-05-09T06:11:27.477Z,21.00
2024-05-09T06:13:57.583Z,20.53
2024-05-09T06:16:24.785Z,20.23
2024-05-09T06:18:54.854Z,20.73
2024-05-09T06:21:22.289Z,21.10
2024-05-09T06:23:55.057Z,20.57
2024-05-09T06:26:22.614Z,19.80
2024-05-09T06:28:52.554Z,19.23
2024-05-09T06:31:19.853Z,17.27
2024-05-09T06:33:49.896Z,19.57
2024-05-09T06:36:17.232Z,23.80
2024-05-09T06:38:47.127Z,20.07
2024-05-09T06:41:17.199Z,19.40
2024-05-09T06:43:47.436Z,18.60
2024-05-09T06:46:14.860Z,19.43
2024-05-09T06:48:46.560Z,18.93
2024-05-09T06:51:14.243Z,23.67
2024-05-09T06:53:44.005Z,20.70
2024-05-09T06:56:11.398Z,24.13
2024-05-09T06:58:43.805Z,24.60
2024-05-09T07:01:11.090Z,19.57
2024-05-09T07:03:43.986Z,20.10
2024-05-09T07:06:11.890Z,20.40
2024-05-09T07:08:41.783Z,19.23
2024-05-09T07:11:09.144Z,18.27
2024-05-09T07:13:39.073Z,25.50
2024-05-09T07:16:09.018Z,23.13
2024-05-09T07:18:39.144Z,24.40
2024-05-09T07:21:07.061Z,22.90
2024-05-09T07:23:37.016Z,22.93
2024-05-09T07:26:04.673Z,19.97
2024-05-09T07:28:34.508Z,18.03
2024-05-09T07:31:01.884Z,18.53
2024-05-09T07:33:34.400Z,17.43
2024-05-09T07:36:01.794Z,19.80
2024-05-09T07:38:31.934Z,22.60
2024-05-09T07:40:59.459Z,19.07
2024-05-09T07:43:29.507Z,18.60
2024-05-09T07:45:59.672Z,18.00
2024-05-09T07:53:48.230Z,16.93
2024-05-09T07:56:21.069Z,15.63
2024-05-09T07:58:53.064Z,18.93
2024-05-09T08:01:21.175Z,18.00
2024-05-09T08:03:55.278Z,18.90
2024-05-09T08:06:23.790Z,15.30
2024-05-09T08:08:53.946Z,16.90
2024-05-09T08:11:21.638Z,21.97
2024-05-09T08:13:51.582Z,20.17
2024-05-09T08:16:19.428Z,17.47
2024-05-09T08:18:54.327Z,15.97
2024-05-09T08:21:21.783Z,15.30
2024-05-09T08:23:51.604Z,15.57
2024-05-09T08:26:18.935Z,13.17
2024-05-09T08:28:49.040Z,12.80
2024-05-09T08:31:16.481Z,19.53
2024-05-09T08:33:47.512Z,20.50
2024-05-09T08:36:17.818Z,18.70
2024-05-09T08:38:47.663Z,15.83
2024-05-09T08:41:15.649Z,15.93
2024-05-09T08:43:47.538Z,17.87
2024-05-09T08:46:15.456Z,20.57
2024-05-09T08:48:46.609Z,16.20
2024-05-09T08:51:14.460Z,15.50
2024-05-09T08:53:47.147Z,17.83
2024-05-09T08:56:16.350Z,15.50
2024-05-09T08:58:48.146Z,16.83
2024-05-09T09:01:18.196Z,15.43
2024-05-09T09:03:48.711Z,13.57
2024-05-09T09:06:20.658Z,14.40
2024-05-09T09:08:53.726Z,23.83
2024-05-09T09:11:21.002Z,19.60
2024-05-09T09:13:52.084Z,18.23
2024-05-09T09:16:19.484Z,15.80
2024-05-09T09:18:51.490Z,28.47
2024-05-09T09:21:18.913Z,23.10
2024-05-09T09:23:48.711Z,20.93
2024-05-09T09:26:19.070Z,15.93
2024-05-09T09:28:49.792Z,15.73
2024-05-09T09:31:19.096Z,25.07
2024-05-09T09:33:49.719Z,20.73
2024-05-09T09:36:18.442Z,18.37
2024-05-09T09:38:50.864Z,18.20
2024-05-09T09:41:26.357Z,14.83
2024-05-09T09:43:56.977Z,15.83
2024-05-09T09:46:26.541Z,11.93
2024-05-09T09:48:56.899Z,14.40
2024-05-09T09:51:25.575Z,11.17
2024-05-09T09:53:56.005Z,19.13
2024-05-09T09:56:30.277Z,16.33
2024-05-09T09:59:01.526Z,16.37
2024-05-09T10:01:29.034Z,13.97
2024-05-09T10:04:00.044Z,10.87
2024-05-09T10:06:28.894Z,16.30
2024-05-09T10:08:59.554Z,21.50
2024-05-09T10:11:30.804Z,14.63
2024-05-09T10:14:01.601Z,11.87
2024-05-09T10:16:31.463Z,11.90
2024-05-09T10:19:01.942Z,20.97
2024-05-09T10:21:29.433Z,17.07
2024-05-09T10:24:00.790Z,14.20
2024-05-09T10:26:34.792Z,13.50
2024-05-09T10:29:14.113Z,15.63
2024-05-09T10:31:42.879Z,11.70
2024-05-09T10:34:20.195Z,20.00
2024-05-09T10:36:52.448Z,18.00
2024-05-09T10:39:23.170Z,21.37
2024-05-09T10:41:53.153Z,22.97
2024-05-09T10:44:24.578Z,24.40
2024-05-09T10:46:54.632Z,24.27
2024-05-09T10:49:25.467Z,21.30
2024-05-09T10:51:53.409Z,20.50
2024-05-09T10:54:23.227Z,23.80
2024-05-09T10:56:58.796Z,17.37
2024-05-09T10:59:35.572Z,15.53
2024-05-09T11:02:05.029Z,18.40
2024-05-09T11:04:36.490Z,19.00
2024-05-09T11:07:07.562Z,16.70
2024-05-09T11:09:38.812Z,16.17
2024-05-09T11:12:09.485Z,14.07
2024-05-09T11:14:39.385Z,18.20
2024-05-09T11:17:08.011Z,16.10
2024-05-09T11:19:41.706Z,18.47
2024-05-09T11:22:09.144Z,17.80
2024-05-09T11:24:39.649Z,15.53
2024-05-09T11:27:12.581Z,12.73
2024-05-09T11:29:44.735Z,14.57
2024-05-09T11:32:14.933Z,11.40
2024-05-09T11:34:45.185Z,11.60
2024-05-09T11:37:13.742Z,11.73
2024-05-09T11:39:43.907Z,13.43
2024-05-09T11:42:14.324Z,15.50
2024-05-09T11:44:44.124Z,16.37
2024-05-09T11:47:11.402Z,12.93
2024-05-09T11:49:41.310Z,14.33
2024-05-09T11:52:08.713Z,12.90
2024-05-09T11:54:38.608Z,13.13
2024-05-09T11:57:05.886Z,15.30
2024-05-09T11:59:38.493Z,20.57
2024-05-09T12:02:05.985Z,13.20
2024-05-09T12:04:36.042Z,34.33
2024-05-09T12:07:03.591Z,15.00
2024-05-09T12:09:34.553Z,14.07
2024-05-09T12:12:01.806Z,19.43
2024-05-09T12:14:31.582Z,16.93
2024-05-09T12:17:03.765Z,15.10
2024-05-09T12:19:33.754Z,12.17
2024-05-09T12:22:01.227Z,10.10
2024-05-09T12:24:31.346Z,12.97
2024-05-09T12:26:58.820Z,12.60
2024-05-09T12:29:28.965Z,13.00
2024-05-09T12:31:56.223Z,12.20
2024-05-09T12:34:28.796Z,12.70
2024-05-09T12:36:58.776Z,10.50
2024-05-09T12:39:26.135Z,8.40
2024-05-09T12:41:55.912Z,9.70
2024-05-09T12:44:23.096Z,10.27
2024-05-09T12:46:53.287Z,8.57
2024-05-09T12:49:24.357Z,8.17
2024-05-09T12:51:56.966Z,10.50
2024-05-09T12:54:24.182Z,7.60
2024-05-09T12:56:54.277Z,9.53
2024-05-09T12:59:21.503Z,11.17
2024-05-09T13:01:51.634Z,9.10
2024-05-09T13:04:19.330Z,7.10
2024-05-09T13:06:49.479Z,6.57
2024-05-09T13:09:19.816Z,6.70
2024-05-09T13:11:49.819Z,7.47
2024-05-09T13:14:17.116Z,7.07
2024-05-09T13:16:47.051Z,8.53
2024-05-09T13:19:14.480Z,9.53
2024-05-09T13:21:44.403Z,6.90
2024-05-09T13:24:11.676Z,8.53
2024-05-09T13:26:44.188Z,7.93
2024-05-09T13:29:11.498Z,8.63
2024-05-09T13:31:41.592Z,7.37
2024-05-09T13:34:08.981Z,7.63
2024-05-09T13:36:38.926Z,8.03
2024-05-09T13:39:06.210Z,7.03
2024-05-09T13:41:36.143Z,6.33
2024-05-09T13:44:06.402Z,6.13
2024-05-09T13:46:36.518Z,7.30
2024-05-09T13:49:04.112Z,10.93
2024-05-09T13:51:34.307Z,5.93
2024-05-09T13:54:01.549Z,5.83
2024-05-09T13:56:31.380Z,9.27
2024-05-09T13:58:58.654Z,8.20
2024-05-09T14:01:31.291Z,8.00
2024-05-09T14:03:58.617Z,8.87
2024-05-09T14:06:28.621Z,12.67
2024-05-09T14:08:56.031Z,8.20
2024-05-09T14:11:25.802Z,7.43
2024-05-09T14:13:53.071Z,7.17
2024-05-09T14:16:23.331Z,7.93
2024-05-09T14:18:53.457Z,7.90
2024-05-09T14:21:23.219Z,6.33
2024-05-09T14:23:50.495Z,5.73
2024-05-09T14:26:20.376Z,6.77
2024-05-09T14:28:47.694Z,5.27
2024-05-09T14:31:17.908Z,4.70
2024-05-09T14:33:45.366Z,5.47
2024-05-09T14:36:18.076Z,5.53
2024-05-09T14:38:45.256Z,5.47
2024-05-09T14:41:15.145Z,7.40
2024-05-09T14:43:42.305Z,7.03
2024-05-09T14:46:12.245Z,6.27
2024-05-09T14:48:39.731Z,8.80
2024-05-09T14:51:09.747Z,5.17
2024-05-09T14:53:39.511Z,6.10
2024-05-09T14:56:09.838Z,5.50
2024-05-09T14:58:37.051Z,5.67
2024-05-09T15:01:07.464Z,6.00
2024-05-09T15:03:34.956Z,6.90
2024-05-09T15:06:04.916Z,5.30
2024-05-09T15:08:32.664Z,8.20
2024-05-09T15:11:05.299Z,5.27
2024-05-09T15:13:32.904Z,7.47
2024-05-09T15:16:03.121Z,6.87
2024-05-09T15:18:30.577Z,7.63
2024-05-09T15:21:00.870Z,9.10
2024-05-09T15:23:28.128Z,6.10
2024-05-09T15:25:57.952Z,9.87
2024-05-09T15:28:27.878Z,6.87
2024-05-09T15:30:58.021Z,7.67
2024-05-09T15:33:25.309Z,7.03
2024-05-09T15:35:55.377Z,5.73
2024-05-09T15:38:22.584Z,6.63
2024-05-09T15:40:52.709Z,22.70
2024-05-09T15:43:20.104Z,14.30
2024-05-09T15:45:52.738Z,10.70
2024-05-09T15:48:20.233Z,9.20
2024-05-09T15:50:50.254Z,10.10
2024-05-09T15:53:17.504Z,7.37
2024-05-09T15:55:47.403Z,6.90
2024-05-09T15:58:15.071Z,7.37
2024-05-09T16:00:47.789Z,6.47
2024-05-09T16:03:21.174Z,7.20
2024-05-09T16:05:51.805Z,8.33
2024-05-09T16:08:19.354Z,8.27
2024-05-09T16:10:50.088Z,7.40
2024-05-09T16:13:17.991Z,4.50
2024-05-09T16:15:48.793Z,5.57
2024-05-09T16:18:19.700Z,5.23
2024-05-09T16:20:50.440Z,4.83
2024-05-09T16:23:18.242Z,4.33
2024-05-09T16:25:48.878Z,3.93
2024-05-09T16:28:16.522Z,4.10
2024-05-09T16:30:46.398Z,5.70
2024-05-09T16:33:13.988Z,12.93
2024-05-09T16:35:47.037Z,3.30
2024-05-09T16:38:14.240Z,4.70
2024-05-09T16:40:44.091Z,4.50
2024-05-09T16:43:12.636Z,4.67
2024-05-09T16:45:44.808Z,3.50
2024-05-09T16:48:13.036Z,5.43
2024-05-09T16:50:43.190Z,3.80
2024-05-09T16:53:13.823Z,6.00
2024-05-09T16:55:43.822Z,5.97
2024-05-09T16:58:12.365Z,4.37
2024-05-09T17:00:43.932Z,7.47
2024-05-09T17:03:14.662Z,6.53
2024-05-09T17:05:47.127Z,4.57
2024-05-09T17:08:18.350Z,4.80
2024-05-09T17:10:49.705Z,5.40
2024-05-09T17:13:20.385Z,8.87
2024-05-09T17:15:51.396Z,4.50
2024-05-09T17:18:19.072Z,4.80
2024-05-09T17:20:49.178Z,4.87
2024-05-09T17:23:19.097Z,5.27
2024-05-09T17:25:48.943Z,3.13
2024-05-09T17:28:16.326Z,5.40
2024-05-09T17:30:46.532Z,4.50
2024-05-09T17:33:14.047Z,4.30
2024-05-09T17:35:45.887Z,4.13
2024-05-09T17:38:14.015Z,3.70
2024-05-09T17:40:46.459Z,4.27
2024-05-09T17:43:13.737Z,3.43
2024-05-09T17:45:43.822Z,4.40
2024-05-09T17:48:12.301Z,3.87
2024-05-09T17:50:42.918Z,5.33
2024-05-09T17:53:10.485Z,9.70
2024-05-09T17:55:42.625Z,7.40
2024-05-09T17:58:13.181Z,6.10
2024-05-09T18:00:43.134Z,6.53
2024-05-09T18:03:12.233Z,5.50
2024-05-09T18:05:44.515Z,7.03
2024-05-09T18:08:13.117Z,5.13
2024-05-09T18:10:43.400Z,9.17
2024-05-09T18:13:13.724Z,7.00
2024-05-09T18:15:45.086Z,8.80
2024-05-09T18:18:13.361Z,10.53
2024-05-09T18:20:45.786Z,9.20
2024-05-09T18:23:16.228Z,11.83
2024-05-09T18:25:48.065Z,8.30
2024-05-09T18:28:18.405Z,8.57
2024-05-09T18:30:48.328Z,7.97
2024-05-09T18:33:16.343Z,10.27
2024-05-09T18:35:47.199Z,8.75
2024-05-09T18:38:14.465Z,7.93
2024-05-09T18:40:47.203Z,8.23
2024-05-09T18:43:26.177Z,11.70
2024-05-09T18:46:01.183Z,9.27
2024-05-09T18:48:28.597Z,10.47
2024-05-09T18:50:58.630Z,10.97
2024-05-09T18:53:25.961Z,13.23
2024-05-09T18:55:55.720Z,13.90
2024-05-09T18:58:25.610Z,13.70
2024-05-09T19:00:57.712Z,13.43
2024-05-09T19:03:26.644Z,16.20
2024-05-09T19:05:56.808Z,12.40
2024-05-09T19:08:24.086Z,11.30
2024-05-09T19:10:54.126Z,12.87
2024-05-09T19:13:21.397Z,12.47
2024-05-09T19:15:54.070Z,12.07
2024-05-09T19:18:21.870Z,10.53
2024-05-09T19:20:51.811Z,10.30
2024-05-09T19:23:19.001Z,10.43
2024-05-09T19:25:49.307Z,12.60
2024-05-09T19:28:16.612Z,12.87
2024-05-09T19:30:46.510Z,9.37
2024-05-09T19:33:16.478Z,12.40
2024-05-09T19:35:46.546Z,9.40
2024-05-09T19:38:13.910Z,12.50
2024-05-09T19:40:43.793Z,8.67
2024-05-09T19:43:11.322Z,8.53
2024-05-09T19:45:41.274Z,7.63
2024-05-09T19:48:08.877Z,7.70
2024-05-09T19:50:44.144Z,8.57
2024-05-09T19:53:12.994Z,9.90
2024-05-09T19:55:43.393Z,10.60
2024-05-09T19:58:12.252Z,10.90
2024-05-09T20:00:44.072Z,10.07
2024-05-09T20:03:15.234Z,10.10
2024-05-09T20:05:49.144Z,10.60
2024-05-09T20:08:18.385Z,10.40
2024-05-09T20:10:48.326Z,10.60
2024-05-09T20:13:15.745Z,12.37
2024-05-09T20:15:45.720Z,9.30
2024-05-09T20:18:13.300Z,9.77
2024-05-09T20:20:44.987Z,9.80
2024-05-09T20:23:15.609Z,8.13
2024-05-09T20:25:46.358Z,8.00
2024-05-09T20:28:13.776Z,8.80
2024-05-09T20:30:43.710Z,7.83
2024-05-09T20:33:12.675Z,8.53
2024-05-09T20:35:42.741Z,9.20
2024-05-09T20:38:10.198Z,11.33
2024-05-09T20:40:43.767Z,8.03
2024-05-09T20:43:11.270Z,7.73
2024-05-09T20:45:41.796Z,9.50
2024-05-09T20:48:09.766Z,8.33
2024-05-09T20:50:42.023Z,9.53
2024-05-09T20:53:11.541Z,8.77
2024-05-09T20:55:45.118Z,7.27
2024-05-09T20:58:13.218Z,9.30
2024-05-09T21:00:45.427Z,8.23
2024-05-09T21:03:16.162Z,7.00
2024-05-09T21:05:47.701Z,8.90
2024-05-09T21:08:15.682Z,7.70
2024-05-09T21:10:48.273Z,7.80
2024-05-09T21:13:16.025Z,8.57
2024-05-09T21:15:45.833Z,8.83
2024-05-09T21:18:13.148Z,7.90
2024-05-09T21:20:43.010Z,7.47
2024-05-09T21:23:10.217Z,8.40
2024-05-09T21:25:40.022Z,8.10
2024-05-09T21:28:10.064Z,9.90
2024-05-09T21:30:42.652Z,8.77
2024-05-09T21:33:12.860Z,9.80
2024-05-09T21:35:44.853Z,9.40
2024-05-09T21:38:14.222Z,10.40
2024-05-09T21:40:45.238Z,8.87
2024-05-09T21:43:15.512Z,8.70
2024-05-09T21:45:45.616Z,9.10
2024-05-09T21:48:13.421Z,9.00
2024-05-09T21:50:43.433Z,9.80
2024-05-09T21:53:11.226Z,9.53
2024-05-09T21:55:41.292Z,9.70
2024-05-09T21:58:08.667Z,10.83
2024-05-09T22:00:42.769Z,10.20
2024-05-09T22:03:11.706Z,10.90
2024-05-09T22:05:44.275Z,10.57
2024-05-09T22:08:12.009Z,11.67
2024-05-09T22:10:41.952Z,11.73
2024-05-09T22:13:09.408Z,10.93
2024-05-09T22:15:42.608Z,11.63
2024-05-09T22:18:11.048Z,13.00
2024-05-09T22:20:45.244Z,12.20
2024-05-09T22:23:13.965Z,11.53
2024-05-09T22:25:43.955Z,12.87
2024-05-09T22:28:14.444Z,12.33
2024-05-09T22:30:47.767Z,12.53
2024-05-09T22:33:15.791Z,11.50
2024-05-09T22:35:45.858Z,11.00
2024-05-09T22:38:13.445Z,11.37
2024-05-09T22:40:48.247Z,12.27
2024-05-09T22:43:21.716Z,11.30
2024-05-09T22:45:56.705Z,10.57
2024-05-09T22:48:25.134Z,10.50
2024-05-09T22:50:56.204Z,10.90
2024-05-09T22:53:24.674Z,10.77
2024-05-09T22:55:54.633Z,10.67
2024-05-09T22:58:22.682Z,11.77
2024-05-09T23:00:52.840Z,12.97
2024-05-09T23:03:23.179Z,10.03
2024-05-09T23:05:53.077Z,12.23
2024-05-09T23:08:20.253Z,11.40
2024-05-09T23:10:50.020Z,12.20
2024-05-09T23:13:17.312Z,12.13
2024-05-09T23:15:47.257Z,12.00
2024-05-09T23:18:14.560Z,12.27
2024-05-09T23:20:47.122Z,13.53
2024-05-09T23:23:14.378Z,13.67
2024-05-09T23:25:44.383Z,12.20
2024-05-09T23:28:14.328Z,14.20
2024-05-09T23:30:42.342Z,12.67
2024-05-09T23:33:14.196Z,12.10
2024-05-09T23:35:44.910Z,14.87
2024-05-09T23:38:15.398Z,12.77
2024-05-09T23:40:43.351Z,14.10
2024-05-09T23:43:14.037Z,14.07
2024-05-09T23:45:41.939Z,15.63
2024-05-09T23:48:12.419Z,13.60
2024-05-09T23:50:40.738Z,15.73
2024-05-09T23:53:14.244Z,14.33
2024-05-09T23:55:41.565Z,15.13
2024-05-09T23:58:11.671Z,11.87
